sensor_id;sensor_type;location;lat;lon;timestamp;P1;P2;P0
81989;PMS5003;71485;51.638;-0.182;2024-02-21T00:01:29;1;1;
81989;PMS5003;71485;51.638;-0.182;2024-02-21T00:03:54;2;2;
81989;PMS5003;71485;51.638;-0.182;2024-02-21T00:06:24;4;3;
81989;PMS5003;71485;51.638;-0.182;2024-02-21T00:08:46;2;2;
81989;PMS5003;71485;51.638;-0.182;2024-02-21T00:11:14;2;2;
81989;PMS5003;71485;51.638;-0.182;2024-02-21T00:13:37;2;2;
81989;PMS5003;71485;51.638;-0.182;2024-02-21T00:16:03;2;2;
81989;PMS5003;71485;51.638;-0.182;2024-02-21T00:18:29;1;1;
81989;PMS5003;71485;51.638;-0.182;2024-02-21T00:20:54;3;3;
81989;PMS5003;71485;51.638;-0.182;2024-02-21T00:23:19;1;1;
81989;PMS5003;71485;51.638;-0.182;2024-02-21T00:25:47;0;0;
81989;PMS5003;71485;51.638;-0.182;2024-02-21T00:28:10;2;2;
81989;PMS5003;71485;51.638;-0.182;2024-02-21T00:30:36;1;1;
81989;PMS5003;71485;51.638;-0.182;2024-02-21T00:33:02;2;2;
81989;PMS5003;71485;51.638;-0.182;2024-02-21T00:35:28;1;1;
81989;PMS5003;71485;51.638;-0.182;2024-02-21T00:37:53;2;2;
81989;PMS5003;71485;51.638;-0.182;2024-02-21T00:40:20;2;2;
81989;PMS5003;71485;51.638;-0.182;2024-02-21T00:42:44;3;3;
81989;PMS5003;71485;51.638;-0.182;2024-02-21T00:45:10;2;2;
81989;PMS5003;71485;51.638;-0.182;2024-02-21T00:47:35;1;1;
81989;PMS5003;71485;51.638;-0.182;2024-02-21T00:50:02;3;2;
81989;PMS5003;71485;51.638;-0.182;2024-02-21T00:52:26;2;2;
81989;PMS5003;71485;51.638;-0.182;2024-02-21T00:54:52;2;2;
81989;PMS5003;71485;51.638;-0.182;2024-02-21T00:57:18;2;2;
81989;PMS5003;71485;51.638;-0.182;2024-02-21T00:59:44;3;2;
81989;PMS5003;71485;51.638;-0.182;2024-02-21T01:02:09;3;3;
81989;PMS5003;71485;51.638;-0.182;2024-02-21T01:04:34;3;2;
81989;PMS5003;71485;51.638;-0.182;2024-02-21T01:07:02;2;2;
81989;PMS5003;71485;51.638;-0.182;2024-02-21T01:09:25;2;2;
81989;PMS5003;71485;51.638;-0.182;2024-02-21T01:11:53;3;3;
81989;PMS5003;71485;51.638;-0.182;2024-02-21T01:14:18;2;2;
81989;PMS5003;71485;51.638;-0.182;2024-02-21T01:16:42;4;3;
81989;PMS5003;71485;51.638;-0.182;2024-02-21T01:19:08;2;2;
81989;PMS5003;71485;51.638;-0.182;2024-02-21T01:21:33;1;1;
81989;PMS5003;71485;51.638;-0.182;2024-02-21T01:23:59;2;2;
81989;PMS5003;71485;51.638;-0.182;2024-02-21T01:26:25;2;2;
81989;PMS5003;71485;51.638;-0.182;2024-02-21T01:28:52;1;1;
81989;PMS5003;71485;51.638;-0.182;2024-02-21T01:31:16;2;2;
81989;PMS5003;71485;51.638;-0.182;2024-02-21T01:33:41;3;3;
81989;PMS5003;71485;51.638;-0.182;2024-02-21T01:36:07;3;3;
81989;PMS5003;71485;51.638;-0.182;2024-02-21T01:38:35;2;2;
81989;PMS5003;71485;51.638;-0.182;2024-02-21T01:40:58;2;2;
81989;PMS5003;71485;51.638;-0.182;2024-02-21T01:43:24;2;2;
81989;PMS5003;71485;51.638;-0.182;2024-02-21T01:45:50;3;2;
81989;PMS5003;71485;51.638;-0.182;2024-02-21T01:48:15;3;3;
81989;PMS5003;71485;51.638;-0.182;2024-02-21T01:50:41;2;2;
81989;PMS5003;71485;51.638;-0.182;2024-02-21T01:53:06;2;2;
81989;PMS5003;71485;51.638;-0.182;2024-02-21T01:55:32;2;1;
81989;PMS5003;71485;51.638;-0.182;2024-02-21T01:58:00;2;2;
81989;PMS5003;71485;51.638;-0.182;2024-02-21T02:00:24;2;2;
81989;PMS5003;71485;51.638;-0.182;2024-02-21T02:02:50;1;1;
81989;PMS5003;71485;51.638;-0.182;2024-02-21T02:05:14;1;1;
81989;PMS5003;71485;51.638;-0.182;2024-02-21T02:07:46;3;3;
81989;PMS5003;71485;51.638;-0.182;2024-02-21T02:10:08;2;2;
81989;PMS5003;71485;51.638;-0.182;2024-02-21T02:12:31;2;1;
81989;PMS5003;71485;51.638;-0.182;2024-02-21T02:14:58;4;3;
81989;PMS5003;71485;51.638;-0.182;2024-02-21T02:17:22;1;1;
81989;PMS5003;71485;51.638;-0.182;2024-02-21T02:19:48;5;3;
81989;PMS5003;71485;51.638;-0.182;2024-02-21T02:22:16;0;0;
81989;PMS5003;71485;51.638;-0.182;2024-02-21T02:24:39;1;0;
81989;PMS5003;71485;51.638;-0.182;2024-02-21T02:27:04;2;1;
81989;PMS5003;71485;51.638;-0.182;2024-02-21T02:29:31;3;2;
81989;PMS5003;71485;51.638;-0.182;2024-02-21T02:31:56;2;2;
81989;PMS5003;71485;51.638;-0.182;2024-02-21T02:34:22;2;1;
81989;PMS5003;71485;51.638;-0.182;2024-02-21T02:36:47;2;2;
81989;PMS5003;71485;51.638;-0.182;2024-02-21T02:39:13;1;1;
81989;PMS5003;71485;51.638;-0.182;2024-02-21T02:41:41;2;2;
81989;PMS5003;71485;51.638;-0.182;2024-02-21T02:44:04;2;1;
81989;PMS5003;71485;51.638;-0.182;2024-02-21T02:46:30;4;4;
81989;PMS5003;71485;51.638;-0.182;2024-02-21T02:49:03;2;2;
81989;PMS5003;71485;51.638;-0.182;2024-02-21T02:51:23;2;2;
81989;PMS5003;71485;51.638;-0.182;2024-02-21T02:53:47;2;2;
81989;PMS5003;71485;51.638;-0.182;2024-02-21T02:56:15;2;1;
81989;PMS5003;71485;51.638;-0.182;2024-02-21T02:58:40;3;3;
81989;PMS5003;71485;51.638;-0.182;2024-02-21T03:01:09;1;1;
81989;PMS5003;71485;51.638;-0.182;2024-02-21T03:03:34;3;2;
81989;PMS5003;71485;51.638;-0.182;2024-02-21T03:05:55;2;2;
81989;PMS5003;71485;51.638;-0.182;2024-02-21T03:08:20;2;1;
81989;PMS5003;71485;51.638;-0.182;2024-02-21T03:10:52;1;1;
81989;PMS5003;71485;51.638;-0.182;2024-02-21T03:13:12;2;2;
81989;PMS5003;71485;51.638;-0.182;2024-02-21T03:15:37;5;4;
81989;PMS5003;71485;51.638;-0.182;2024-02-21T03:18:03;4;3;
81989;PMS5003;71485;51.638;-0.182;2024-02-21T03:20:28;2;2;
81989;PMS5003;71485;51.638;-0.182;2024-02-21T03:22:55;2;2;
81989;PMS5003;71485;51.638;-0.182;2024-02-21T03:25:20;3;3;
81989;PMS5003;71485;51.638;-0.182;2024-02-21T03:27:51;0;0;
81989;PMS5003;71485;51.638;-0.182;2024-02-21T03:30:10;2;2;
81989;PMS5003;71485;51.638;-0.182;2024-02-21T03:32:36;3;2;
81989;PMS5003;71485;51.638;-0.182;2024-02-21T03:35:07;3;3;
81989;PMS5003;71485;51.638;-0.182;2024-02-21T03:37:33;2;2;
81989;PMS5003;71485;51.638;-0.182;2024-02-21T03:39:59;2;2;
81989;PMS5003;71485;51.638;-0.182;2024-02-21T03:42:18;3;3;
81989;PMS5003;71485;51.638;-0.182;2024-02-21T03:44:43;2;2;
81989;PMS5003;71485;51.638;-0.182;2024-02-21T03:47:10;2;2;
81989;PMS5003;71485;51.638;-0.182;2024-02-21T03:49:38;2;2;
81989;PMS5003;71485;51.638;-0.182;2024-02-21T03:52:01;3;2;
81989;PMS5003;71485;51.638;-0.182;2024-02-21T03:54:27;2;2;
81989;PMS5003;71485;51.638;-0.182;2024-02-21T03:56:52;5;4;
81989;PMS5003;71485;51.638;-0.182;2024-02-21T03:59:20;2;2;
81989;PMS5003;71485;51.638;-0.182;2024-02-21T04:04:09;1;1;
81989;PMS5003;71485;51.638;-0.182;2024-02-21T04:06:36;3;3;
81989;PMS5003;71485;51.638;-0.182;2024-02-21T04:09:01;2;1;
81989;PMS5003;71485;51.638;-0.182;2024-02-21T04:11:26;2;2;
81989;PMS5003;71485;51.638;-0.182;2024-02-21T04:13:54;4;3;
81989;PMS5003;71485;51.638;-0.182;2024-02-21T04:16:21;2;2;
81989;PMS5003;71485;51.638;-0.182;2024-02-21T04:18:43;3;3;
81989;PMS5003;71485;51.638;-0.182;2024-02-21T04:21:09;3;3;
81989;PMS5003;71485;51.638;-0.182;2024-02-21T04:23:35;3;2;
81989;PMS5003;71485;51.638;-0.182;2024-02-21T04:25:59;3;3;
81989;PMS5003;71485;51.638;-0.182;2024-02-21T04:28:27;2;2;
81989;PMS5003;71485;51.638;-0.182;2024-02-21T04:30:51;1;1;
81989;PMS5003;71485;51.638;-0.182;2024-02-21T04:33:16;2;2;
81989;PMS5003;71485;51.638;-0.182;2024-02-21T04:35:42;3;2;
81989;PMS5003;71485;51.638;-0.182;2024-02-21T04:38:10;2;2;
81989;PMS5003;71485;51.638;-0.182;2024-02-21T04:40:49;2;2;
81989;PMS5003;71485;51.638;-0.182;2024-02-21T04:42:58;2;2;
81989;PMS5003;71485;51.638;-0.182;2024-02-21T04:45:28;3;3;
81989;PMS5003;71485;51.638;-0.182;2024-02-21T04:47:53;1;1;
81989;PMS5003;71485;51.638;-0.182;2024-02-21T04:50:16;1;1;
81989;PMS5003;71485;51.638;-0.182;2024-02-21T04:52:43;2;2;
81989;PMS5003;71485;51.638;-0.182;2024-02-21T04:55:11;2;2;
81989;PMS5003;71485;51.638;-0.182;2024-02-21T04:57:33;2;2;
81989;PMS5003;71485;51.638;-0.182;2024-02-21T05:00:00;2;2;
81989;PMS5003;71485;51.638;-0.182;2024-02-21T05:02:27;3;2;
81989;PMS5003;71485;51.638;-0.182;2024-02-21T05:04:49;2;2;
81989;PMS5003;71485;51.638;-0.182;2024-02-21T05:07:15;3;3;
81989;PMS5003;71485;51.638;-0.182;2024-02-21T05:09:41;3;2;
81989;PMS5003;71485;51.638;-0.182;2024-02-21T05:12:09;2;2;
81989;PMS5003;71485;51.638;-0.182;2024-02-21T05:14:31;3;3;
81989;PMS5003;71485;51.638;-0.182;2024-02-21T05:17:04;3;3;
81989;PMS5003;71485;51.638;-0.182;2024-02-21T05:21:47;2;1;
81989;PMS5003;71485;51.638;-0.182;2024-02-21T05:24:20;2;2;
81989;PMS5003;71485;51.638;-0.182;2024-02-21T05:26:39;2;2;
81989;PMS5003;71485;51.638;-0.182;2024-02-21T05:29:04;2;2;
81989;PMS5003;71485;51.638;-0.182;2024-02-21T05:33:55;3;2;
81989;PMS5003;71485;51.638;-0.182;2024-02-21T05:36:21;0;0;
81989;PMS5003;71485;51.638;-0.182;2024-02-21T05:38:50;3;1;
81989;PMS5003;71485;51.638;-0.182;2024-02-21T05:41:12;2;1;
81989;PMS5003;71485;51.638;-0.182;2024-02-21T05:43:38;2;2;
81989;PMS5003;71485;51.638;-0.182;2024-02-21T05:46:04;2;2;
81989;PMS5003;71485;51.638;-0.182;2024-02-21T05:48:30;1;1;
81989;PMS5003;71485;51.638;-0.182;2024-02-21T05:50:55;2;2;
81989;PMS5003;71485;51.638;-0.182;2024-02-21T05:53:20;2;2;
81989;PMS5003;71485;51.638;-0.182;2024-02-21T05:55:45;3;3;
81989;PMS5003;71485;51.638;-0.182;2024-02-21T05:58:14;3;3;
81989;PMS5003;71485;51.638;-0.182;2024-02-21T06:00:36;1;1;
81989;PMS5003;71485;51.638;-0.182;2024-02-21T06:03:02;2;1;
81989;PMS5003;71485;51.638;-0.182;2024-02-21T06:05:28;1;1;
81989;PMS5003;71485;51.638;-0.182;2024-02-21T06:07:54;1;1;
81989;PMS5003;71485;51.638;-0.182;2024-02-21T06:10:23;2;2;
81989;PMS5003;71485;51.638;-0.182;2024-02-21T06:12:44;2;2;
81989;PMS5003;71485;51.638;-0.182;2024-02-21T06:15:12;2;1;
81989;PMS5003;71485;51.638;-0.182;2024-02-21T06:17:36;3;2;
81989;PMS5003;71485;51.638;-0.182;2024-02-21T06:20:01;1;1;
81989;PMS5003;71485;51.638;-0.182;2024-02-21T06:22:27;1;1;
81989;PMS5003;71485;51.638;-0.182;2024-02-21T06:24:52;2;2;
81989;PMS5003;71485;51.638;-0.182;2024-02-21T06:27:21;2;1;
81989;PMS5003;71485;51.638;-0.182;2024-02-21T06:29:44;1;1;
81989;PMS5003;71485;51.638;-0.182;2024-02-21T06:32:09;0;0;
81989;PMS5003;71485;51.638;-0.182;2024-02-21T06:34:35;0;0;
81989;PMS5003;71485;51.638;-0.182;2024-02-21T06:37:01;2;2;
81989;PMS5003;71485;51.638;-0.182;2024-02-21T06:39:27;1;1;
81989;PMS5003;71485;51.638;-0.182;2024-02-21T06:41:52;1;1;
81989;PMS5003;71485;51.638;-0.182;2024-02-21T06:44:17;2;2;
81989;PMS5003;71485;51.638;-0.182;2024-02-21T06:46:43;2;2;
81989;PMS5003;71485;51.638;-0.182;2024-02-21T06:49:13;0;0;
81989;PMS5003;71485;51.638;-0.182;2024-02-21T06:51:34;2;2;
81989;PMS5003;71485;51.638;-0.182;2024-02-21T06:54:00;1;1;
81989;PMS5003;71485;51.638;-0.182;2024-02-21T06:56:25;1;1;
81989;PMS5003;71485;51.638;-0.182;2024-02-21T06:58:53;4;2;
81989;PMS5003;71485;51.638;-0.182;2024-02-21T07:01:20;2;2;
81989;PMS5003;71485;51.638;-0.182;2024-02-21T07:03:42;1;0;
81989;PMS5003;71485;51.638;-0.182;2024-02-21T07:06:07;0;0;
81989;PMS5003;71485;51.638;-0.182;2024-02-21T07:08:35;1;1;
81989;PMS5003;71485;51.638;-0.182;2024-02-21T07:10:59;3;2;
81989;PMS5003;71485;51.638;-0.182;2024-02-21T07:13:25;1;1;
81989;PMS5003;71485;51.638;-0.182;2024-02-21T07:15:50;2;1;
81989;PMS5003;71485;51.638;-0.182;2024-02-21T07:18:16;1;1;
81989;PMS5003;71485;51.638;-0.182;2024-02-21T07:20:42;2;2;
81989;PMS5003;71485;51.638;-0.182;2024-02-21T07:23:07;2;2;
81989;PMS5003;71485;51.638;-0.182;2024-02-21T07:25:34;1;1;
81989;PMS5003;71485;51.638;-0.182;2024-02-21T07:27:58;1;1;
81989;PMS5003;71485;51.638;-0.182;2024-02-21T07:30:24;1;1;
81989;PMS5003;71485;51.638;-0.182;2024-02-21T07:32:49;2;2;
81989;PMS5003;71485;51.638;-0.182;2024-02-21T07:35:15;0;0;
81989;PMS5003;71485;51.638;-0.182;2024-02-21T07:37:40;1;1;
81989;PMS5003;71485;51.638;-0.182;2024-02-21T07:40:12;0;0;
81989;PMS5003;71485;51.638;-0.182;2024-02-21T07:42:32;1;1;
81989;PMS5003;71485;51.638;-0.182;2024-02-21T07:44:57;1;1;
81989;PMS5003;71485;51.638;-0.182;2024-02-21T07:47:23;1;1;
81989;PMS5003;71485;51.638;-0.182;2024-02-21T07:49:50;2;2;
81989;PMS5003;71485;51.638;-0.182;2024-02-21T07:52:16;0;0;
81989;PMS5003;71485;51.638;-0.182;2024-02-21T07:54:41;1;1;
81989;PMS5003;71485;51.638;-0.182;2024-02-21T07:57:06;0;0;
81989;PMS5003;71485;51.638;-0.182;2024-02-21T07:59:31;2;2;
81989;PMS5003;71485;51.638;-0.182;2024-02-21T08:01:56;1;1;
81989;PMS5003;71485;51.638;-0.182;2024-02-21T08:04:22;1;1;
81989;PMS5003;71485;51.638;-0.182;2024-02-21T08:06:52;0;0;
81989;PMS5003;71485;51.638;-0.182;2024-02-21T08:09:13;2;1;
81989;PMS5003;71485;51.638;-0.182;2024-02-21T08:11:42;1;1;
81989;PMS5003;71485;51.638;-0.182;2024-02-21T08:14:11;0;0;
81989;PMS5003;71485;51.638;-0.182;2024-02-21T08:16:31;1;1;
81989;PMS5003;71485;51.638;-0.182;2024-02-21T08:18:56;1;1;
81989;PMS5003;71485;51.638;-0.182;2024-02-21T08:21:21;1;1;
81989;PMS5003;71485;51.638;-0.182;2024-02-21T08:23:47;1;1;
81989;PMS5003;71485;51.638;-0.182;2024-02-21T08:26:13;2;2;
81989;PMS5003;71485;51.638;-0.182;2024-02-21T08:28:38;1;1;
81989;PMS5003;71485;51.638;-0.182;2024-02-21T08:31:04;0;0;
81989;PMS5003;71485;51.638;-0.182;2024-02-21T08:33:29;1;1;
81989;PMS5003;71485;51.638;-0.182;2024-02-21T08:35:55;1;1;
81989;PMS5003;71485;51.638;-0.182;2024-02-21T08:38:21;1;1;
81989;PMS5003;71485;51.638;-0.182;2024-02-21T08:40:46;3;3;
81989;PMS5003;71485;51.638;-0.182;2024-02-21T08:43:12;0;0;
81989;PMS5003;71485;51.638;-0.182;2024-02-21T08:45:37;1;1;
81989;PMS5003;71485;51.638;-0.182;2024-02-21T08:48:03;1;1;
81989;PMS5003;71485;51.638;-0.182;2024-02-21T08:50:30;2;2;
81989;PMS5003;71485;51.638;-0.182;2024-02-21T08:52:54;5;4;
81989;PMS5003;71485;51.638;-0.182;2024-02-21T08:55:20;4;4;
81989;PMS5003;71485;51.638;-0.182;2024-02-21T08:57:46;7;7;
81989;PMS5003;71485;51.638;-0.182;2024-02-21T09:00:12;8;8;
81989;PMS5003;71485;51.638;-0.182;2024-02-21T09:02:37;10;10;
81989;PMS5003;71485;51.638;-0.182;2024-02-21T09:05:02;10;10;
81989;PMS5003;71485;51.638;-0.182;2024-02-21T09:07:29;10;10;
81989;PMS5003;71485;51.638;-0.182;2024-02-21T09:09:53;9;9;
81989;PMS5003;71485;51.638;-0.182;2024-02-21T09:12:20;9;9;
81989;PMS5003;71485;51.638;-0.182;2024-02-21T09:14:47;9;9;
81989;PMS5003;71485;51.638;-0.182;2024-02-21T09:17:10;10;10;
81989;PMS5003;71485;51.638;-0.182;2024-02-21T09:19:36;8;8;
81989;PMS5003;71485;51.638;-0.182;2024-02-21T09:22:01;8;8;
81989;PMS5003;71485;51.638;-0.182;2024-02-21T09:24:27;7;7;
81989;PMS5003;71485;51.638;-0.182;2024-02-21T09:26:53;8;8;
81989;PMS5003;71485;51.638;-0.182;2024-02-21T09:29:18;8;8;
81989;PMS5003;71485;51.638;-0.182;2024-02-21T09:31:44;7;7;
81989;PMS5003;71485;51.638;-0.182;2024-02-21T09:34:10;7;7;
81989;PMS5003;71485;51.638;-0.182;2024-02-21T09:36:36;10;9;
81989;PMS5003;71485;51.638;-0.182;2024-02-21T09:39:02;8;8;
81989;PMS5003;71485;51.638;-0.182;2024-02-21T09:41:32;10;10;
81989;PMS5003;71485;51.638;-0.182;2024-02-21T09:43:54;11;11;
81989;PMS5003;71485;51.638;-0.182;2024-02-21T09:46:18;10;10;
81989;PMS5003;71485;51.638;-0.182;2024-02-21T09:48:48;9;9;
81989;PMS5003;71485;51.638;-0.182;2024-02-21T09:51:13;8;8;
81989;PMS5003;71485;51.638;-0.182;2024-02-21T09:53:36;7;7;
81989;PMS5003;71485;51.638;-0.182;2024-02-21T09:56:00;6;6;
81989;PMS5003;71485;51.638;-0.182;2024-02-21T09:58:29;7;7;
81989;PMS5003;71485;51.638;-0.182;2024-02-21T10:00:51;8;7;
81989;PMS5003;71485;51.638;-0.182;2024-02-21T10:03:18;6;6;
81989;PMS5003;71485;51.638;-0.182;2024-02-21T10:05:46;5;5;
81989;PMS5003;71485;51.638;-0.182;2024-02-21T10:08:15;5;5;
81989;PMS5003;71485;51.638;-0.182;2024-02-21T10:10:40;6;6;
81989;PMS5003;71485;51.638;-0.182;2024-02-21T10:13:00;4;4;
81989;PMS5003;71485;51.638;-0.182;2024-02-21T10:15:25;4;4;
81989;PMS5003;71485;51.638;-0.182;2024-02-21T10:20:16;5;5;
81989;PMS5003;71485;51.638;-0.182;2024-02-21T10:22:42;9;9;
81989;PMS5003;71485;51.638;-0.182;2024-02-21T10:25:07;14;12;
81989;PMS5003;71485;51.638;-0.182;2024-02-21T10:27:32;16;14;
81989;PMS5003;71485;51.638;-0.182;2024-02-21T10:29:58;16;14;
81989;PMS5003;71485;51.638;-0.182;2024-02-21T10:32:24;17;16;
81989;PMS5003;71485;51.638;-0.182;2024-02-21T10:34:49;15;13;
81989;PMS5003;71485;51.638;-0.182;2024-02-21T10:37:16;14;13;
81989;PMS5003;71485;51.638;-0.182;2024-02-21T10:39:40;12;12;
81989;PMS5003;71485;51.638;-0.182;2024-02-21T10:42:05;14;12;
81989;PMS5003;71485;51.638;-0.182;2024-02-21T10:44:31;15;14;
81989;PMS5003;71485;51.638;-0.182;2024-02-21T10:46:55;17;17;
81989;PMS5003;71485;51.638;-0.182;2024-02-21T10:49:23;14;13;
81989;PMS5003;71485;51.638;-0.182;2024-02-21T10:51:47;8;7;
81989;PMS5003;71485;51.638;-0.182;2024-02-21T10:54:16;11;10;
81989;PMS5003;71485;51.638;-0.182;2024-02-21T10:56:38;11;11;
81989;PMS5003;71485;51.638;-0.182;2024-02-21T10:59:05;8;8;
81989;PMS5003;71485;51.638;-0.182;2024-02-21T11:01:29;8;8;
81989;PMS5003;71485;51.638;-0.182;2024-02-21T11:03:55;7;7;
81989;PMS5003;71485;51.638;-0.182;2024-02-21T11:06:20;8;7;
81989;PMS5003;71485;51.638;-0.182;2024-02-21T11:11:12;9;8;
81989;PMS5003;71485;51.638;-0.182;2024-02-21T11:13:37;10;10;
81989;PMS5003;71485;51.638;-0.182;2024-02-21T11:16:06;6;6;
81989;PMS5003;71485;51.638;-0.182;2024-02-21T11:18:27;7;7;
81989;PMS5003;71485;51.638;-0.182;2024-02-21T11:20:53;6;6;
81989;PMS5003;71485;51.638;-0.182;2024-02-21T11:25:45;5;5;
81989;PMS5003;71485;51.638;-0.182;2024-02-21T11:28:10;4;3;
81989;PMS5003;71485;51.638;-0.182;2024-02-21T11:30:36;5;5;
81989;PMS5003;71485;51.638;-0.182;2024-02-21T11:33:01;5;5;
81989;PMS5003;71485;51.638;-0.182;2024-02-21T11:35:26;5;5;
81989;PMS5003;71485;51.638;-0.182;2024-02-21T11:37:53;3;3;
81989;PMS5003;71485;51.638;-0.182;2024-02-21T11:40:18;3;3;
81989;PMS5003;71485;51.638;-0.182;2024-02-21T11:42:44;3;2;
81989;PMS5003;71485;51.638;-0.182;2024-02-21T11:45:09;4;3;
81989;PMS5003;71485;51.638;-0.182;2024-02-21T11:47:34;3;3;
81989;PMS5003;71485;51.638;-0.182;2024-02-21T11:50:02;3;3;
81989;PMS5003;71485;51.638;-0.182;2024-02-21T11:52:26;3;3;
81989;PMS5003;71485;51.638;-0.182;2024-02-21T11:54:51;5;3;
81989;PMS5003;71485;51.638;-0.182;2024-02-21T11:57:17;3;3;
81989;PMS5003;71485;51.638;-0.182;2024-02-21T11:59:44;2;1;
81989;PMS5003;71485;51.638;-0.182;2024-02-21T12:02:08;2;2;
81989;PMS5003;71485;51.638;-0.182;2024-02-21T12:04:34;3;2;
81989;PMS5003;71485;51.638;-0.182;2024-02-21T12:06:59;1;1;
81989;PMS5003;71485;51.638;-0.182;2024-02-21T12:09:26;3;2;
81989;PMS5003;71485;51.638;-0.182;2024-02-21T12:11:57;1;1;
81989;PMS5003;71485;51.638;-0.182;2024-02-21T12:14:17;2;1;
81989;PMS5003;71485;51.638;-0.182;2024-02-21T12:16:41;3;2;
81989;PMS5003;71485;51.638;-0.182;2024-02-21T12:19:07;2;2;
81989;PMS5003;71485;51.638;-0.182;2024-02-21T12:21:33;3;2;
81989;PMS5003;71485;51.638;-0.182;2024-02-21T12:23:58;1;1;
81989;PMS5003;71485;51.638;-0.182;2024-02-21T12:26:24;2;2;
81989;PMS5003;71485;51.638;-0.182;2024-02-21T12:28:50;2;2;
81989;PMS5003;71485;51.638;-0.182;2024-02-21T12:31:15;2;1;
81989;PMS5003;71485;51.638;-0.182;2024-02-21T12:33:40;2;2;
81989;PMS5003;71485;51.638;-0.182;2024-02-21T12:36:06;2;1;
81989;PMS5003;71485;51.638;-0.182;2024-02-21T12:38:33;1;1;
81989;PMS5003;71485;51.638;-0.182;2024-02-21T12:40:58;2;2;
81989;PMS5003;71485;51.638;-0.182;2024-02-21T12:43:23;1;1;
81989;PMS5003;71485;51.638;-0.182;2024-02-21T12:45:48;1;1;
81989;PMS5003;71485;51.638;-0.182;2024-02-21T12:48:14;0;0;
81989;PMS5003;71485;51.638;-0.182;2024-02-21T12:50:40;1;1;
81989;PMS5003;71485;51.638;-0.182;2024-02-21T12:53:05;2;1;
81989;PMS5003;71485;51.638;-0.182;2024-02-21T12:55:30;1;1;
81989;PMS5003;71485;51.638;-0.182;2024-02-21T12:57:56;1;0;
81989;PMS5003;71485;51.638;-0.182;2024-02-21T13:00:22;1;1;
81989;PMS5003;71485;51.638;-0.182;2024-02-21T13:02:47;0;0;
81989;PMS5003;71485;51.638;-0.182;2024-02-21T13:05:13;1;0;
81989;PMS5003;71485;51.638;-0.182;2024-02-21T13:07:41;1;1;
81989;PMS5003;71485;51.638;-0.182;2024-02-21T13:10:05;1;1;
81989;PMS5003;71485;51.638;-0.182;2024-02-21T13:12:31;0;0;
81989;PMS5003;71485;51.638;-0.182;2024-02-21T13:14:56;1;1;
81989;PMS5003;71485;51.638;-0.182;2024-02-21T13:17:21;0;0;
81989;PMS5003;71485;51.638;-0.182;2024-02-21T13:19:46;2;2;
81989;PMS5003;71485;51.638;-0.182;2024-02-21T13:22:12;0;0;
81989;PMS5003;71485;51.638;-0.182;2024-02-21T13:24:38;2;1;
81989;PMS5003;71485;51.638;-0.182;2024-02-21T13:27:05;1;1;
81989;PMS5003;71485;51.638;-0.182;2024-02-21T13:29:31;0;0;
81989;PMS5003;71485;51.638;-0.182;2024-02-21T13:31:59;0;0;
81989;PMS5003;71485;51.638;-0.182;2024-02-21T13:34:20;1;0;
81989;PMS5003;71485;51.638;-0.182;2024-02-21T13:36:46;0;0;
81989;PMS5003;71485;51.638;-0.182;2024-02-21T13:39:12;0;0;
81989;PMS5003;71485;51.638;-0.182;2024-02-21T13:41:37;1;0;
81989;PMS5003;71485;51.638;-0.182;2024-02-21T13:44:04;0;0;
81989;PMS5003;71485;51.638;-0.182;2024-02-21T13:46:29;1;1;
81989;PMS5003;71485;51.638;-0.182;2024-02-21T13:49:02;0;0;
81989;PMS5003;71485;51.638;-0.182;2024-02-21T13:51:19;0;0;
81989;PMS5003;71485;51.638;-0.182;2024-02-21T13:53:45;0;0;
81989;PMS5003;71485;51.638;-0.182;2024-02-21T13:56:10;0;0;
81989;PMS5003;71485;51.638;-0.182;2024-02-21T13:58:37;0;0;
81989;PMS5003;71485;51.638;-0.182;2024-02-21T14:01:01;0;0;
81989;PMS5003;71485;51.638;-0.182;2024-02-21T14:03:27;0;0;
81989;PMS5003;71485;51.638;-0.182;2024-02-21T14:05:53;0;0;
81989;PMS5003;71485;51.638;-0.182;2024-02-21T14:08:21;0;0;
81989;PMS5003;71485;51.638;-0.182;2024-02-21T14:27:01;0;0;
81989;PMS5003;71485;51.638;-0.182;2024-02-21T14:29:26;0;0;
81989;PMS5003;71485;51.638;-0.182;2024-02-21T14:31:51;0;0;
81989;PMS5003;71485;51.638;-0.182;2024-02-21T14:34:18;0;0;
81989;PMS5003;71485;51.638;-0.182;2024-02-21T14:36:42;0;0;
81989;PMS5003;71485;51.638;-0.182;2024-02-21T14:39:11;0;0;
81989;PMS5003;71485;51.638;-0.182;2024-02-21T14:41:34;0;0;
81989;PMS5003;71485;51.638;-0.182;2024-02-21T14:43:59;1;0;
81989;PMS5003;71485;51.638;-0.182;2024-02-21T14:46:31;0;0;
81989;PMS5003;71485;51.638;-0.182;2024-02-21T14:48:58;0;0;
81989;PMS5003;71485;51.638;-0.182;2024-02-21T14:51:16;0;0;
81989;PMS5003;71485;51.638;-0.182;2024-02-21T14:53:41;0;0;
81989;PMS5003;71485;51.638;-0.182;2024-02-21T14:56:12;0;0;
81989;PMS5003;71485;51.638;-0.182;2024-02-21T14:58:33;0;0;
81989;PMS5003;71485;51.638;-0.182;2024-02-21T15:00:58;0;0;
81989;PMS5003;71485;51.638;-0.182;2024-02-21T15:03:25;1;0;
81989;PMS5003;71485;51.638;-0.182;2024-02-21T15:05:49;0;0;
81989;PMS5003;71485;51.638;-0.182;2024-02-21T15:08:17;0;0;
81989;PMS5003;71485;51.638;-0.182;2024-02-21T15:10:41;0;0;
81989;PMS5003;71485;51.638;-0.182;2024-02-21T15:13:08;0;0;
81989;PMS5003;71485;51.638;-0.182;2024-02-21T15:15:32;0;0;
81989;PMS5003;71485;51.638;-0.182;2024-02-21T15:17:57;0;0;
81989;PMS5003;71485;51.638;-0.182;2024-02-21T15:20:24;0;0;
81989;PMS5003;71485;51.638;-0.182;2024-02-21T15:22:48;0;0;
81989;PMS5003;71485;51.638;-0.182;2024-02-21T15:25:14;2;0;
81989;PMS5003;71485;51.638;-0.182;2024-02-21T15:27:40;0;0;
81989;PMS5003;71485;51.638;-0.182;2024-02-21T15:30:06;0;0;
81989;PMS5003;71485;51.638;-0.182;2024-02-21T15:32:31;0;0;
81989;PMS5003;71485;51.638;-0.182;2024-02-21T15:34:56;0;0;
81989;PMS5003;71485;51.638;-0.182;2024-02-21T15:37:22;0;0;
81989;PMS5003;71485;51.638;-0.182;2024-02-21T15:39:48;0;0;
81989;PMS5003;71485;51.638;-0.182;2024-02-21T15:42:13;0;0;
81989;PMS5003;71485;51.638;-0.182;2024-02-21T15:44:40;0;0;
81989;PMS5003;71485;51.638;-0.182;2024-02-21T15:47:04;0;0;
81989;PMS5003;71485;51.638;-0.182;2024-02-21T15:49:32;0;0;
81989;PMS5003;71485;51.638;-0.182;2024-02-21T15:51:57;0;0;
81989;PMS5003;71485;51.638;-0.182;2024-02-21T15:54:21;0;0;
81989;PMS5003;71485;51.638;-0.182;2024-02-21T15:56:46;0;0;
81989;PMS5003;71485;51.638;-0.182;2024-02-21T15:59:12;0;0;
81989;PMS5003;71485;51.638;-0.182;2024-02-21T16:01:38;1;0;
81989;PMS5003;71485;51.638;-0.182;2024-02-21T16:04:07;0;0;
81989;PMS5003;71485;51.638;-0.182;2024-02-21T16:06:29;0;0;
81989;PMS5003;71485;51.638;-0.182;2024-02-21T16:08:56;0;0;
81989;PMS5003;71485;51.638;-0.182;2024-02-21T16:11:21;0;0;
81989;PMS5003;71485;51.638;-0.182;2024-02-21T16:13:46;0;0;
81989;PMS5003;71485;51.638;-0.182;2024-02-21T16:16:11;0;0;
81989;PMS5003;71485;51.638;-0.182;2024-02-21T16:18:37;0;0;
81989;PMS5003;71485;51.638;-0.182;2024-02-21T16:21:02;0;0;
81989;PMS5003;71485;51.638;-0.182;2024-02-21T16:23:28;0;0;
81989;PMS5003;71485;51.638;-0.182;2024-02-21T16:25:55;0;0;
81989;PMS5003;71485;51.638;-0.182;2024-02-21T16:28:19;0;0;
81989;PMS5003;71485;51.638;-0.182;2024-02-21T16:30:45;0;0;
81989;PMS5003;71485;51.638;-0.182;2024-02-21T16:33:11;0;0;
81989;PMS5003;71485;51.638;-0.182;2024-02-21T16:35:36;0;0;
81989;PMS5003;71485;51.638;-0.182;2024-02-21T16:38:02;1;1;
81989;PMS5003;71485;51.638;-0.182;2024-02-21T16:40:28;0;0;
81989;PMS5003;71485;51.638;-0.182;2024-02-21T16:42:53;0;0;
81989;PMS5003;71485;51.638;-0.182;2024-02-21T16:45:18;0;0;
81989;PMS5003;71485;51.638;-0.182;2024-02-21T16:47:44;1;0;
81989;PMS5003;71485;51.638;-0.182;2024-02-21T16:50:11;1;0;
81989;PMS5003;71485;51.638;-0.182;2024-02-21T16:52:35;0;0;